createdAt,value
2017-03-28T00:00:52.029Z,988.36
2017-03-28T00:02:02.283Z,988.45
2017-03-28T00:03:12.234Z,988.38
2017-03-28T00:04:22.493Z,988.37
2017-03-28T00:05:32.757Z,988.35
2017-03-28T00:06:42.710Z,988.38
2017-03-28T00:07:52.972Z,988.36
2017-03-28T00:09:03.236Z,988.37
2017-03-28T00:10:13.500Z,988.37
2017-03-28T00:11:23.758Z,988.38
2017-03-28T00:12:34.041Z,988.35
2017-03-28T00:13:44.303Z,988.39
2017-03-28T00:14:54.567Z,988.41
2017-03-28T00:16:04.836Z,988.39
2017-03-28T00:17:14.779Z,988.39
2017-03-28T00:18:25.043Z,988.39
2017-03-28T00:19:35.305Z,988.42
2017-03-28T00:20:45.564Z,988.45
2017-03-28T00:21:55.821Z,988.46
2017-03-28T00:23:06.082Z,988.47
2017-03-28T00:24:16.346Z,988.47
2017-03-28T00:25:26.295Z,988.45
2017-03-28T00:26:36.553Z,988.44
2017-03-28T00:27:46.808Z,988.46
2017-03-28T00:28:57.077Z,988.42
2017-03-28T00:30:07.339Z,988.46
2017-03-28T00:31:17.603Z,988.44
2017-03-28T00:32:27.861Z,988.46
2017-03-28T00:33:37.837Z,988.45
2017-03-28T00:34:48.102Z,988.45
2017-03-28T00:35:58.366Z,988.44
2017-03-28T00:37:08.626Z,988.47
2017-03-28T00:38:18.887Z,988.47
2017-03-28T00:39:29.155Z,988.46
2017-03-28T00:40:39.097Z,988.52
2017-03-28T00:41:49.044Z,988.48
2017-03-28T00:42:59.303Z,988.51
2017-03-28T00:44:09.567Z,988.48
2017-03-28T00:45:19.829Z,988.49
2017-03-28T00:46:30.087Z,988.51
2017-03-28T00:47:40.028Z,988.48
2017-03-28T00:48:50.293Z,988.49
2017-03-28T00:50:00.566Z,988.49
2017-03-28T00:51:10.514Z,988.5
2017-03-28T00:52:20.777Z,988.47
2017-03-28T00:53:31.030Z,988.46
2017-03-28T00:54:41.298Z,988.5
2017-03-28T00:55:51.559Z,988.53
2017-03-28T00:57:01.815Z,988.53
2017-03-28T00:58:12.079Z,988.52
2017-03-28T00:59:22.344Z,988.55
2017-03-28T01:00:32.605Z,988.56
2017-03-28T01:01:42.557Z,988.55
2017-03-28T01:02:52.814Z,988.56
2017-03-28T01:04:03.073Z,988.51
2017-03-28T01:05:13.330Z,988.55
2017-03-28T01:06:23.581Z,988.6
2017-03-28T01:07:32.578Z,988.6
2017-03-28T01:08:42.841Z,988.63
2017-03-28T01:09:53.107Z,988.63
2017-03-28T01:11:03.376Z,988.65
2017-03-28T01:12:13.640Z,988.62
2017-03-28T01:13:23.898Z,988.54
2017-03-28T01:14:34.158Z,988.57
2017-03-28T01:15:44.107Z,988.54
2017-03-28T01:16:54.371Z,988.51
2017-03-28T01:18:04.649Z,988.57
2017-03-28T01:19:14.906Z,988.55
2017-03-28T01:20:25.159Z,988.55
2017-03-28T01:21:35.416Z,988.58
2017-03-28T01:22:45.678Z,988.56
2017-03-28T01:23:55.941Z,988.55
2017-03-28T01:25:06.207Z,988.54
2017-03-28T01:26:16.150Z,988.56
2017-03-28T01:27:26.409Z,988.53
2017-03-28T01:28:36.358Z,988.53
2017-03-28T01:29:46.301Z,988.51
2017-03-28T01:30:56.566Z,988.57
2017-03-28T01:32:06.830Z,988.54
2017-03-28T01:33:17.094Z,988.52
2017-03-28T01:34:27.355Z,988.56
2017-03-28T01:35:37.311Z,988.53
2017-03-28T01:36:47.572Z,988.51
2017-03-28T01:37:57.829Z,988.53
2017-03-28T01:39:07.773Z,988.55
2017-03-28T01:40:18.035Z,988.55
2017-03-28T01:41:27.979Z,988.59
2017-03-28T01:42:37.920Z,988.6
2017-03-28T01:43:48.199Z,988.6
2017-03-28T01:44:58.462Z,988.56
2017-03-28T01:46:08.723Z,988.57
2017-03-28T01:47:18.976Z,988.56
2017-03-28T01:48:29.231Z,988.62
2017-03-28T01:49:39.179Z,988.64
2017-03-28T01:50:49.438Z,988.6
2017-03-28T01:51:59.706Z,988.63
2017-03-28T01:53:09.976Z,988.6
2017-03-28T01:54:20.230Z,988.59
2017-03-28T01:55:30.174Z,988.58
2017-03-28T01:56:40.442Z,988.62
2017-03-28T01:57:50.384Z,988.6
2017-03-28T01:59:00.645Z,988.59
2017-03-28T02:00:10.899Z,988.55
2017-03-28T02:01:21.158Z,988.55
2017-03-28T02:02:31.100Z,988.55
2017-03-28T02:03:41.368Z,988.57
2017-03-28T02:04:51.635Z,988.6
2017-03-28T02:06:01.893Z,988.57
2017-03-28T02:07:12.156Z,988.58
2017-03-28T02:08:22.416Z,988.55
2017-03-28T02:09:32.677Z,988.58
2017-03-28T02:10:42.622Z,988.55
2017-03-28T02:11:52.874Z,988.55
2017-03-28T02:13:03.138Z,988.57
2017-03-28T02:14:13.389Z,988.6
2017-03-28T02:15:23.649Z,988.57
2017-03-28T02:16:33.905Z,988.56
2017-03-28T02:17:44.158Z,988.55
2017-03-28T02:18:54.414Z,988.57
2017-03-28T02:20:04.368Z,988.55
2017-03-28T02:21:14.630Z,988.57
2017-03-28T02:22:24.571Z,988.54
2017-03-28T02:23:34.834Z,988.57
2017-03-28T02:24:45.120Z,988.52
2017-03-28T02:25:55.383Z,988.55
2017-03-28T02:27:05.643Z,988.52
2017-03-28T02:28:15.902Z,988.55
2017-03-28T02:29:25.859Z,988.52
2017-03-28T02:30:35.804Z,988.55
2017-03-28T02:31:46.065Z,988.53
2017-03-28T02:32:56.353Z,988.5
2017-03-28T02:34:06.607Z,988.51
2017-03-28T02:35:16.553Z,988.54
2017-03-28T02:36:26.809Z,988.51
2017-03-28T02:37:37.062Z,988.52
2017-03-28T02:38:47.333Z,988.53
2017-03-28T02:39:57.588Z,988.49
2017-03-28T02:41:07.850Z,988.48
2017-03-28T02:42:18.108Z,988.48
2017-03-28T02:43:28.368Z,988.49
2017-03-28T02:44:38.004Z,988.46
2017-03-28T02:45:48.257Z,988.5
2017-03-28T02:46:58.509Z,988.51
2017-03-28T02:48:08.772Z,988.47
2017-03-28T02:49:18.723Z,988.49
2017-03-28T02:50:28.978Z,988.49
2017-03-28T02:51:39.235Z,988.52
2017-03-28T02:52:49.187Z,988.42
2017-03-28T02:53:59.450Z,988.46
2017-03-28T02:55:09.397Z,988.43
2017-03-28T02:56:19.652Z,988.41
2017-03-28T02:57:29.914Z,988.4
2017-03-28T02:58:40.181Z,988.44
2017-03-28T02:59:50.441Z,988.46
2017-03-28T03:01:00.697Z,988.41
2017-03-28T03:02:10.947Z,988.43
2017-03-28T03:03:21.213Z,988.42
2017-03-28T03:04:31.490Z,988.44
2017-03-28T03:05:41.751Z,988.41
2017-03-28T03:06:52.012Z,988.41
2017-03-28T03:08:02.272Z,988.37
2017-03-28T03:09:12.223Z,988.44
2017-03-28T03:10:22.486Z,988.38
2017-03-28T03:11:32.744Z,988.42
2017-03-28T03:12:43.000Z,988.39
2017-03-28T03:13:53.256Z,988.35
2017-03-28T03:15:03.215Z,988.43
2017-03-28T03:16:13.474Z,988.36
2017-03-28T03:17:23.754Z,988.37
2017-03-28T03:18:34.014Z,988.37
2017-03-28T03:19:43.960Z,988.39
2017-03-28T03:20:54.227Z,988.42
2017-03-28T03:22:04.495Z,988.43
2017-03-28T03:23:14.754Z,988.39
2017-03-28T03:24:24.701Z,988.41
2017-03-28T03:25:34.964Z,988.44
2017-03-28T03:26:45.220Z,988.41
2017-03-28T03:27:55.472Z,988.41
2017-03-28T03:29:05.733Z,988.45
2017-03-28T03:30:15.677Z,988.37
2017-03-28T03:31:25.924Z,988.42
2017-03-28T03:32:35.872Z,988.4
2017-03-28T03:33:46.134Z,988.43
2017-03-28T03:34:56.399Z,988.43
2017-03-28T03:36:06.663Z,988.43
2017-03-28T03:37:16.922Z,988.43
2017-03-28T03:38:27.180Z,988.43
2017-03-28T03:39:37.439Z,988.46
2017-03-28T03:40:47.696Z,988.49
2017-03-28T03:41:57.640Z,988.49
2017-03-28T03:43:07.893Z,988.54
2017-03-28T03:44:18.159Z,988.52
2017-03-28T03:45:28.112Z,988.51
2017-03-28T03:46:38.368Z,988.53
2017-03-28T03:47:48.628Z,988.51
2017-03-28T03:48:58.887Z,988.57
2017-03-28T03:50:09.148Z,988.55
2017-03-28T03:51:19.096Z,988.57
2017-03-28T03:52:29.353Z,988.59
2017-03-28T03:53:39.615Z,988.58
2017-03-28T03:54:49.563Z,988.59
2017-03-28T03:55:59.836Z,988.6
2017-03-28T03:57:10.102Z,988.62
2017-03-28T03:58:20.357Z,988.65
2017-03-28T03:59:30.622Z,988.65
2017-03-28T04:00:40.882Z,988.67
2017-03-28T04:01:50.821Z,988.66
2017-03-28T04:03:00.771Z,988.66
2017-03-28T04:04:11.026Z,988.73
2017-03-28T04:05:21.280Z,988.71
2017-03-28T04:06:31.535Z,988.72
2017-03-28T04:07:41.796Z,988.72
2017-03-28T04:08:52.067Z,988.76
2017-03-28T04:10:02.335Z,988.75
2017-03-28T04:11:12.597Z,988.78
2017-03-28T04:12:22.857Z,988.8
2017-03-28T04:13:33.112Z,988.81
2017-03-28T04:14:43.376Z,988.77
2017-03-28T04:15:53.639Z,988.82
2017-03-28T04:17:03.892Z,988.81
2017-03-28T04:18:14.145Z,988.83
2017-03-28T04:19:24.092Z,988.81
2017-03-28T04:20:34.351Z,988.76
2017-03-28T04:21:44.610Z,988.77
2017-03-28T04:22:54.873Z,988.83
2017-03-28T04:24:05.164Z,988.8
2017-03-28T04:25:15.434Z,988.83
2017-03-28T04:26:25.686Z,988.83
2017-03-28T04:27:35.944Z,988.8
2017-03-28T04:28:45.903Z,988.81
2017-03-28T04:29:56.162Z,988.82
2017-03-28T04:31:06.417Z,988.87
2017-03-28T04:32:16.674Z,988.9
2017-03-28T04:33:26.931Z,988.91
2017-03-28T04:34:37.192Z,988.89
2017-03-28T04:35:46.835Z,988.87
2017-03-28T04:36:57.098Z,988.9
2017-03-28T04:38:07.358Z,988.91
2017-03-28T04:39:17.624Z,988.92
2017-03-28T04:40:27.573Z,988.95
2017-03-28T04:41:37.833Z,988.96
2017-03-28T04:42:47.781Z,988.97
2017-03-28T04:43:57.741Z,988.97
2017-03-28T04:45:08.003Z,989
2017-03-28T04:46:18.261Z,988.98
2017-03-28T04:47:28.519Z,988.96
2017-03-28T04:48:38.779Z,988.98
2017-03-28T04:49:48.419Z,988.98
2017-03-28T04:50:58.686Z,989
2017-03-28T04:52:08.948Z,989.03
2017-03-28T04:53:19.199Z,989
2017-03-28T04:54:29.152Z,989.04
2017-03-28T04:55:39.093Z,989.06
2017-03-28T04:56:49.031Z,989.06
2017-03-28T04:57:59.285Z,989.1
2017-03-28T04:59:09.238Z,989.1
2017-03-28T05:00:19.506Z,989.12
2017-03-28T05:01:29.458Z,989.1
2017-03-28T05:02:39.720Z,989.08
2017-03-28T05:03:49.984Z,989.08
2017-03-28T05:04:59.932Z,989.09
2017-03-28T05:06:09.561Z,989.06
2017-03-28T05:07:19.505Z,989.04
2017-03-28T05:08:29.768Z,988.98
2017-03-28T05:09:40.028Z,989.02
2017-03-28T05:10:50.285Z,989.05
2017-03-28T05:12:00.540Z,989.11
2017-03-28T05:13:10.490Z,989.13
2017-03-28T05:14:20.763Z,989.17
2017-03-28T05:15:31.024Z,989.16
2017-03-28T05:16:41.280Z,989.19
2017-03-28T05:17:51.538Z,989.17
2017-03-28T05:19:01.486Z,989.18
2017-03-28T05:20:11.434Z,989.22
2017-03-28T05:21:21.695Z,989.19
2017-03-28T05:22:31.662Z,989.18
2017-03-28T05:23:41.608Z,989.17
2017-03-28T05:24:51.560Z,989.14
2017-03-28T05:26:01.822Z,989.08
2017-03-28T05:27:12.083Z,989.11
2017-03-28T05:28:22.029Z,989.15
2017-03-28T05:29:31.661Z,989.17
2017-03-28T05:30:41.288Z,989.24
2017-03-28T05:31:51.543Z,989.26
2017-03-28T05:33:01.803Z,989.22
2017-03-28T05:34:12.060Z,989.23
2017-03-28T05:35:22.324Z,989.28
2017-03-28T05:36:32.264Z,989.31
2017-03-28T05:37:42.203Z,989.3
2017-03-28T05:38:52.465Z,989.3
2017-03-28T05:40:02.745Z,989.31
2017-03-28T05:41:13.017Z,989.33
2017-03-28T05:42:23.280Z,989.29
2017-03-28T05:43:33.538Z,989.33
2017-03-28T05:44:43.800Z,989.33
2017-03-28T05:45:54.057Z,989.37
2017-03-28T05:47:04.308Z,989.38
2017-03-28T05:48:14.254Z,989.38
2017-03-28T05:49:24.514Z,989.39
2017-03-28T05:50:34.770Z,989.37
2017-03-28T05:51:45.031Z,989.4
2017-03-28T05:52:55.295Z,989.41
2017-03-28T05:54:05.238Z,989.39
2017-03-28T05:55:15.198Z,989.42
2017-03-28T05:56:25.458Z,989.45
2017-03-28T05:57:35.720Z,989.44
2017-03-28T05:58:46.017Z,989.47
2017-03-28T05:59:56.295Z,989.46
2017-03-28T06:01:06.555Z,989.4
2017-03-28T06:02:16.809Z,989.43
2017-03-28T06:03:27.072Z,989.4
2017-03-28T06:04:37.340Z,989.38
2017-03-28T06:05:47.605Z,989.4
2017-03-28T06:06:57.859Z,989.33
2017-03-28T06:08:07.808Z,989.35
2017-03-28T06:09:17.761Z,989.34
2017-03-28T06:10:28.068Z,989.37
2017-03-28T06:11:38.332Z,989.43
2017-03-28T06:12:48.595Z,989.53
2017-03-28T06:13:58.559Z,989.56
2017-03-28T06:15:08.830Z,989.55
2017-03-28T06:16:18.768Z,989.55
2017-03-28T06:17:29.037Z,989.53
2017-03-28T06:18:38.997Z,989.51
2017-03-28T06:19:48.956Z,989.48
2017-03-28T06:20:58.981Z,989.52
2017-03-28T06:22:08.920Z,989.5
2017-03-28T06:23:19.187Z,989.46
2017-03-28T06:24:29.138Z,989.45
2017-03-28T06:25:39.080Z,989.46
2017-03-28T06:26:49.351Z,989.44
2017-03-28T06:27:59.616Z,989.48
2017-03-28T06:29:09.882Z,989.48
2017-03-28T06:30:20.168Z,989.49
2017-03-28T06:31:30.120Z,989.52
2017-03-28T06:32:40.377Z,989.52
2017-03-28T06:33:50.347Z,989.54
2017-03-28T06:35:00.615Z,989.57
2017-03-28T06:36:10.883Z,989.58
2017-03-28T06:37:20.513Z,989.55
2017-03-28T06:38:30.463Z,989.62
2017-03-28T06:39:40.721Z,989.61
2017-03-28T06:40:50.980Z,989.62
2017-03-28T06:42:00.926Z,989.62
2017-03-28T06:43:10.883Z,989.66
2017-03-28T06:44:21.142Z,989.65
2017-03-28T06:45:31.398Z,989.62
2017-03-28T06:46:41.660Z,989.59
2017-03-28T06:47:51.921Z,989.6
2017-03-28T06:49:02.196Z,989.59
2017-03-28T06:50:12.459Z,989.62
2017-03-28T06:51:22.719Z,989.63
2017-03-28T06:52:32.975Z,989.61
2017-03-28T06:53:43.245Z,989.61
2017-03-28T06:54:53.506Z,989.63
2017-03-28T06:56:03.454Z,989.66
2017-03-28T06:57:13.714Z,989.67
2017-03-28T06:58:23.783Z,989.67
2017-03-28T06:59:34.043Z,989.7
2017-03-28T07:00:44.298Z,989.73
2017-03-28T07:01:54.554Z,989.7
2017-03-28T07:03:04.502Z,989.75
2017-03-28T07:04:14.761Z,989.7
2017-03-28T07:05:25.023Z,989.74
2017-03-28T07:06:35.292Z,989.76
2017-03-28T07:07:45.236Z,989.78
2017-03-28T07:08:55.490Z,989.79
2017-03-28T07:10:05.748Z,989.78
2017-03-28T07:11:15.696Z,989.74
2017-03-28T07:12:25.954Z,989.81
2017-03-28T07:13:35.907Z,989.77
2017-03-28T07:14:46.163Z,989.81
2017-03-28T07:15:56.423Z,989.76
2017-03-28T07:17:06.689Z,989.73
2017-03-28T07:18:16.640Z,989.72
2017-03-28T07:19:26.904Z,989.76
2017-03-28T07:20:37.172Z,989.78
2017-03-28T07:21:47.432Z,989.8
2017-03-28T07:22:57.686Z,989.79
2017-03-28T07:24:07.953Z,989.79
2017-03-28T07:25:17.910Z,989.82
2017-03-28T07:26:27.545Z,989.85
2017-03-28T07:27:37.182Z,989.83
2017-03-28T07:28:47.449Z,989.81
2017-03-28T07:29:57.713Z,989.76
2017-03-28T07:31:07.977Z,989.75
2017-03-28T07:32:18.239Z,989.76
2017-03-28T07:33:28.499Z,989.77
2017-03-28T07:34:38.455Z,989.81
2017-03-28T07:35:48.717Z,989.76
2017-03-28T07:36:58.973Z,989.77
2017-03-28T07:38:09.230Z,989.76
2017-03-28T07:39:19.499Z,989.79
2017-03-28T07:40:29.768Z,989.76
2017-03-28T07:41:39.716Z,989.76
2017-03-28T07:42:49.971Z,989.78
2017-03-28T07:44:00.233Z,989.76
2017-03-28T07:45:10.501Z,989.76
2017-03-28T07:46:20.756Z,989.79
2017-03-28T07:47:31.014Z,989.71
2017-03-28T07:48:41.269Z,989.69
2017-03-28T07:49:50.917Z,989.75
2017-03-28T07:51:01.185Z,989.68
2017-03-28T07:52:11.445Z,989.69
2017-03-28T07:53:21.389Z,989.69
2017-03-28T07:54:31.340Z,989.66
2017-03-28T07:55:41.602Z,989.69
2017-03-28T07:56:51.861Z,989.64
2017-03-28T07:58:01.817Z,989.61
2017-03-28T07:59:11.132Z,989.66
2017-03-28T08:00:21.385Z,989.68
2017-03-28T08:01:31.643Z,989.69
2017-03-28T08:02:41.904Z,989.76
2017-03-28T08:03:52.166Z,989.77
2017-03-28T08:05:02.422Z,989.76
2017-03-28T08:06:12.679Z,989.72
2017-03-28T08:07:22.936Z,989.71
2017-03-28T08:08:33.188Z,989.74
2017-03-28T08:09:43.130Z,989.76
2017-03-28T08:10:53.393Z,989.78
2017-03-28T08:12:03.655Z,989.77
2017-03-28T08:13:13.913Z,989.74
2017-03-28T08:14:24.180Z,989.73
2017-03-28T08:15:34.446Z,989.71
2017-03-28T08:16:44.710Z,989.75
2017-03-28T08:17:55.039Z,989.78
2017-03-28T08:19:05.305Z,989.77
2017-03-28T08:20:15.565Z,989.8
2017-03-28T08:21:25.833Z,989.84
2017-03-28T08:22:36.127Z,989.87
2017-03-28T08:23:46.383Z,989.87
2017-03-28T08:24:56.637Z,989.88
2017-03-28T08:26:06.900Z,989.84
2017-03-28T08:27:17.170Z,989.87
2017-03-28T08:28:27.428Z,989.86
2017-03-28T08:29:37.382Z,989.86
2017-03-28T08:30:47.640Z,989.88
2017-03-28T08:31:57.578Z,989.87
2017-03-28T08:33:07.847Z,989.91
2017-03-28T08:34:17.483Z,989.95
2017-03-28T08:35:27.756Z,990
2017-03-28T08:36:37.407Z,989.96
2017-03-28T08:37:47.667Z,990.03
2017-03-28T08:38:57.925Z,990.04
2017-03-28T08:40:08.181Z,990.02
2017-03-28T08:41:17.507Z,990.02
2017-03-28T08:42:27.762Z,989.99
2017-03-28T08:43:37.707Z,990.01
2017-03-28T08:44:47.350Z,990
2017-03-28T08:45:57.621Z,989.99
2017-03-28T08:47:07.879Z,990.03
2017-03-28T08:48:17.824Z,990
2017-03-28T08:49:28.098Z,990.08
2017-03-28T08:50:38.366Z,990.08
2017-03-28T08:51:48.316Z,990.04
2017-03-28T08:52:58.268Z,990.06
2017-03-28T08:54:08.537Z,990.08
2017-03-28T08:55:18.487Z,990.16
2017-03-28T08:56:28.758Z,990.2
2017-03-28T08:57:39.024Z,990.19
2017-03-28T08:58:49.291Z,990.2
2017-03-28T08:59:59.237Z,990.15
2017-03-28T09:01:09.181Z,990.19
2017-03-28T09:02:19.443Z,990.15
2017-03-28T09:03:29.704Z,990.22
2017-03-28T09:04:39.671Z,990.18
2017-03-28T09:05:50.085Z,990.17
2017-03-28T09:07:00.039Z,990.15
2017-03-28T09:08:09.988Z,990.11
2017-03-28T09:09:20.248Z,990.21
2017-03-28T09:10:30.509Z,990.25
2017-03-28T09:11:40.455Z,990.16
2017-03-28T09:12:50.715Z,990.11
2017-03-28T09:14:00.985Z,990.02
2017-03-28T09:15:11.247Z,990.06
2017-03-28T09:16:21.512Z,990.11
2017-03-28T09:17:31.462Z,990.08
2017-03-28T09:18:41.727Z,990.06
2017-03-28T09:19:51.994Z,990.15
2017-03-28T09:21:02.258Z,990.14
2017-03-28T09:22:12.525Z,990.08
2017-03-28T09:23:22.159Z,990
2017-03-28T09:24:32.437Z,989.99
2017-03-28T09:25:42.394Z,989.99
2017-03-28T09:26:52.660Z,990.03
2017-03-28T09:28:02.930Z,990.08
2017-03-28T09:29:13.196Z,990.02
2017-03-28T09:30:23.475Z,990.05
2017-03-28T09:31:33.743Z,990.03
2017-03-28T09:32:44.004Z,990.07
2017-03-28T09:33:54.272Z,990.16
2017-03-28T09:35:04.536Z,990.01
2017-03-28T09:36:14.804Z,989.98
2017-03-28T09:37:25.068Z,989.95
2017-03-28T09:38:35.340Z,989.89
2017-03-28T09:39:45.615Z,989.81
2017-03-28T09:40:55.570Z,989.83
2017-03-28T09:42:05.835Z,989.81
2017-03-28T09:43:15.795Z,989.78
2017-03-28T09:44:25.747Z,989.85
2017-03-28T09:45:35.711Z,989.88
2017-03-28T09:46:45.976Z,989.91
2017-03-28T09:47:56.246Z,989.86
2017-03-28T09:49:06.516Z,989.89
2017-03-28T09:50:16.782Z,989.88
2017-03-28T09:51:27.049Z,989.9
2017-03-28T09:52:37.317Z,989.94
2017-03-28T09:53:47.265Z,989.89
2017-03-28T09:54:57.231Z,989.88
2017-03-28T09:56:07.498Z,989.9
2017-03-28T09:57:17.447Z,989.99
2017-03-28T09:58:27.711Z,989.95
2017-03-28T09:59:37.981Z,989.91
2017-03-28T10:00:48.242Z,989.87
2017-03-28T10:01:58.503Z,989.85
2017-03-28T10:03:08.766Z,989.79
2017-03-28T10:04:19.041Z,989.81
2017-03-28T10:05:29.304Z,989.84
2017-03-28T10:06:39.563Z,989.9
2017-03-28T10:07:49.821Z,989.87
2017-03-28T10:09:00.088Z,989.86
2017-03-28T10:10:10.355Z,989.83
2017-03-28T10:11:20.616Z,989.78
2017-03-28T10:12:30.880Z,989.71
2017-03-28T10:13:41.141Z,989.7
2017-03-28T10:14:50.778Z,989.79
2017-03-28T10:16:00.731Z,989.75
2017-03-28T10:17:10.369Z,989.75
2017-03-28T10:18:20.661Z,989.7
2017-03-28T10:19:30.924Z,989.71
2017-03-28T10:20:41.202Z,989.6
2017-03-28T10:21:51.471Z,989.63
2017-03-28T10:23:01.758Z,989.61
2017-03-28T10:24:12.028Z,989.61
2017-03-28T10:25:22.299Z,989.59
2017-03-28T10:26:32.565Z,989.6
2017-03-28T10:27:42.520Z,989.54
2017-03-28T10:28:52.812Z,989.58
2017-03-28T10:30:03.077Z,989.53
2017-03-28T10:31:13.341Z,989.49
2017-03-28T10:32:23.605Z,989.51
2017-03-28T10:33:33.564Z,989.51
2017-03-28T10:34:43.824Z,989.48
2017-03-28T10:35:54.082Z,989.47
2017-03-28T10:37:04.025Z,989.43
2017-03-28T10:38:13.977Z,989.48
2017-03-28T10:39:23.928Z,989.41
2017-03-28T10:40:34.194Z,989.39
2017-03-28T10:41:44.453Z,989.36
2017-03-28T10:42:54.721Z,989.34
2017-03-28T10:44:04.991Z,989.34
2017-03-28T10:45:15.253Z,989.31
2017-03-28T10:46:25.197Z,989.32
2017-03-28T10:47:34.517Z,989.27
2017-03-28T10:48:44.786Z,989.26
2017-03-28T10:49:55.051Z,989.25
2017-03-28T10:51:05.321Z,989.19
2017-03-28T10:52:15.588Z,989.17
2017-03-28T10:53:25.887Z,989.2
2017-03-28T10:54:35.845Z,989.21
2017-03-28T10:55:46.108Z,989.22
2017-03-28T10:56:56.369Z,989.21
2017-03-28T10:58:06.629Z,989.28
2017-03-28T10:59:16.892Z,989.3
2017-03-28T11:00:27.156Z,989.34
2017-03-28T11:01:37.457Z,989.32
2017-03-28T11:02:48.090Z,989.31
2017-03-28T11:03:58.351Z,989.33
2017-03-28T11:05:08.619Z,989.33
2017-03-28T11:06:18.885Z,989.25
2017-03-28T11:07:28.851Z,989.31
2017-03-28T11:08:39.115Z,989.39
2017-03-28T11:09:49.384Z,989.3
2017-03-28T11:10:59.657Z,989.33
2017-03-28T11:12:09.919Z,989.27
2017-03-28T11:13:19.877Z,989.2
2017-03-28T11:14:30.144Z,989.23
2017-03-28T11:15:40.409Z,989.17
2017-03-28T11:16:50.357Z,989.08
2017-03-28T11:18:00.620Z,989.12
2017-03-28T11:19:10.579Z,989.05
2017-03-28T11:20:22.844Z,989.14
2017-03-28T11:21:32.796Z,989.09
2017-03-28T11:22:43.065Z,989.09
2017-03-28T11:23:53.337Z,989.1
2017-03-28T11:25:03.606Z,989.07
2017-03-28T11:26:13.873Z,989.11
2017-03-28T11:27:23.824Z,989.08
2017-03-28T11:28:34.094Z,989.06
2017-03-28T11:29:44.362Z,989.03
2017-03-28T11:30:54.322Z,988.98
2017-03-28T11:32:04.587Z,989.01
2017-03-28T11:33:14.545Z,989.01
2017-03-28T11:34:24.815Z,989.11
2017-03-28T11:35:35.086Z,989.12
2017-03-28T11:36:45.355Z,989.17
2017-03-28T11:37:55.670Z,989.12
2017-03-28T11:39:05.940Z,989.21
2017-03-28T11:40:16.234Z,989
2017-03-28T11:41:26.503Z,988.88
2017-03-28T11:42:36.465Z,988.85
2017-03-28T11:43:46.417Z,988.82
2017-03-28T11:44:56.703Z,988.77
2017-03-28T11:46:06.984Z,988.68
2017-03-28T11:47:17.248Z,988.68
2017-03-28T11:48:27.509Z,988.7
2017-03-28T11:49:37.804Z,988.69
2017-03-28T11:50:48.074Z,988.73
2017-03-28T11:51:58.334Z,988.72
2017-03-28T11:53:08.287Z,988.73
2017-03-28T11:54:18.553Z,988.74
2017-03-28T11:55:30.618Z,988.72
2017-03-28T11:56:40.886Z,988.67
2017-03-28T11:57:51.166Z,988.65
2017-03-28T11:59:01.440Z,988.63
2017-03-28T12:00:11.394Z,988.58
2017-03-28T12:01:23.758Z,988.61
2017-03-28T12:02:33.708Z,988.59
2017-03-28T12:03:43.655Z,988.61
2017-03-28T12:04:53.919Z,988.6
2017-03-28T12:06:04.229Z,988.62
2017-03-28T12:07:14.593Z,988.58
2017-03-28T12:08:24.542Z,988.6
2017-03-28T12:09:34.808Z,988.62
2017-03-28T12:10:45.071Z,988.64
2017-03-28T12:11:55.341Z,988.64
2017-03-28T12:13:05.703Z,988.59
2017-03-28T12:14:15.653Z,988.64
2017-03-28T12:15:25.913Z,988.63
2017-03-28T12:16:35.885Z,988.62
2017-03-28T12:17:46.145Z,988.59
2017-03-28T12:18:56.504Z,988.63
2017-03-28T12:20:06.767Z,988.54
2017-03-28T12:21:16.721Z,988.51
2017-03-28T12:22:26.988Z,988.55
2017-03-28T12:23:37.252Z,988.53
2017-03-28T12:24:47.201Z,988.55
2017-03-28T12:25:57.471Z,988.54
2017-03-28T12:27:07.737Z,988.55
2017-03-28T12:28:18.004Z,988.58
2017-03-28T12:29:27.953Z,988.57
2017-03-28T12:32:02.762Z,988.54
2017-03-28T12:33:12.716Z,988.51
2017-03-28T12:34:22.990Z,988.51
2017-03-28T12:35:33.257Z,988.59
2017-03-28T12:36:43.526Z,988.57
2017-03-28T12:37:53.785Z,988.52
2017-03-28T12:39:03.738Z,988.62
2017-03-28T12:40:14.004Z,988.65
2017-03-28T12:41:24.266Z,988.57
2017-03-28T12:42:34.535Z,988.54
2017-03-28T12:43:44.797Z,988.48
2017-03-28T12:44:55.057Z,988.52
2017-03-28T12:46:05.326Z,988.57
2017-03-28T12:47:15.597Z,988.62
2017-03-28T12:48:25.858Z,988.57
2017-03-28T12:49:36.123Z,988.55
2017-03-28T12:50:46.389Z,988.53
2017-03-28T12:51:56.343Z,988.53
2017-03-28T12:53:06.614Z,988.51
2017-03-28T12:54:16.565Z,988.48
2017-03-28T12:55:26.873Z,988.48
2017-03-28T12:56:37.140Z,988.54
2017-03-28T12:57:47.411Z,988.54
2017-03-28T12:58:57.365Z,988.51
2017-03-28T13:00:07.317Z,988.54
2017-03-28T13:01:17.689Z,988.49
2017-03-28T13:02:27.962Z,988.42
2017-03-28T13:03:37.923Z,988.42
2017-03-28T13:04:48.197Z,988.4
2017-03-28T13:05:58.462Z,988.39
2017-03-28T13:07:08.125Z,988.4
2017-03-28T13:08:18.421Z,988.39
2017-03-28T13:09:28.693Z,988.4
2017-03-28T13:10:38.961Z,988.31
2017-03-28T13:11:48.917Z,988.23
2017-03-28T13:12:59.190Z,988.25
2017-03-28T13:14:09.455Z,988.24
2017-03-28T13:15:19.724Z,988.18
2017-03-28T13:16:29.994Z,988.15
2017-03-28T13:17:39.953Z,988.1
2017-03-28T13:18:50.224Z,988.11
2017-03-28T13:20:00.176Z,988.11
2017-03-28T13:21:10.446Z,988.05
2017-03-28T13:22:20.715Z,987.96
2017-03-28T13:23:30.673Z,987.99
2017-03-28T13:24:40.938Z,987.93
2017-03-28T13:25:51.210Z,987.9
2017-03-28T13:27:01.474Z,987.9
2017-03-28T13:28:11.747Z,987.99
2017-03-28T13:29:22.015Z,988.08
2017-03-28T13:30:32.284Z,988.08
2017-03-28T13:31:42.553Z,988.08
2017-03-28T13:32:52.824Z,988.09
2017-03-28T13:34:03.092Z,988.03
2017-03-28T13:35:13.370Z,987.97
2017-03-28T13:36:23.635Z,987.95
2017-03-28T13:37:33.906Z,987.93
2017-03-28T13:38:43.861Z,987.92
2017-03-28T13:39:54.127Z,987.88
2017-03-28T13:41:04.395Z,987.92
2017-03-28T13:42:14.667Z,987.89
2017-03-28T13:43:24.939Z,987.88
2017-03-28T13:44:35.201Z,987.89
2017-03-28T13:45:45.469Z,987.86
2017-03-28T13:46:55.739Z,987.85
2017-03-28T13:48:05.695Z,987.86
2017-03-28T13:49:15.656Z,987.79
2017-03-28T13:50:25.609Z,987.79
2017-03-28T13:51:35.621Z,987.81
2017-03-28T13:52:45.884Z,987.75
2017-03-28T13:53:55.840Z,987.74
2017-03-28T13:55:05.488Z,987.7
2017-03-28T13:56:15.764Z,987.66
2017-03-28T13:57:26.031Z,987.7
2017-03-28T13:58:36.293Z,987.74
2017-03-28T13:59:46.560Z,987.73
2017-03-28T14:00:56.824Z,987.74
2017-03-28T14:02:07.089Z,987.77
2017-03-28T14:03:17.045Z,987.76
2017-03-28T14:04:27.311Z,987.74
2017-03-28T14:05:37.266Z,987.71
2017-03-28T14:06:47.527Z,987.73
2017-03-28T14:07:57.792Z,987.67
2017-03-28T14:09:08.052Z,987.7
2017-03-28T14:10:18.317Z,987.67
2017-03-28T14:11:28.587Z,987.68
2017-03-28T14:12:38.856Z,987.66
2017-03-28T14:13:49.127Z,987.64
2017-03-28T14:14:59.387Z,987.65
2017-03-28T14:16:09.653Z,987.62
2017-03-28T14:17:19.923Z,987.62
2017-03-28T14:18:30.188Z,987.58
2017-03-28T14:19:40.460Z,987.53
2017-03-28T14:20:50.724Z,987.52
2017-03-28T14:22:01.005Z,987.47
2017-03-28T14:23:11.275Z,987.39
2017-03-28T14:24:21.539Z,987.42
2017-03-28T14:25:31.493Z,987.37
2017-03-28T14:26:41.760Z,987.42
2017-03-28T14:27:52.034Z,987.39
2017-03-28T14:29:01.982Z,987.32
2017-03-28T14:30:12.249Z,987.34
2017-03-28T14:31:22.517Z,987.36
2017-03-28T14:32:32.470Z,987.31
2017-03-28T14:33:42.424Z,987.34
2017-03-28T14:34:52.682Z,987.38
2017-03-28T14:36:02.952Z,987.4
2017-03-28T14:37:13.218Z,987.34
2017-03-28T14:38:23.484Z,987.33
2017-03-28T14:39:33.753Z,987.27
2017-03-28T14:40:43.708Z,987.24